sensor_id;sensor_type;location;lat;lon;timestamp;pressure;altitude;pressure_sealevel;temperature;humidity
37792;BME280;29527;55.766;37.570;2023-03-19T00:02:22;101233.84;;;-1.01;38.15
37792;BME280;29527;55.766;37.570;2023-03-19T00:04:48;101232.13;;;-1.05;38.10
37792;BME280;29527;55.766;37.570;2023-03-19T00:07:14;101224.13;;;-0.94;38.09
37792;BME280;29527;55.766;37.570;2023-03-19T00:09:41;101221.63;;;-1.07;38.00
37792;BME280;29527;55.766;37.570;2023-03-19T00:12:07;101224.13;;;-0.96;37.65
37792;BME280;29527;55.766;37.570;2023-03-19T00:14:33;101219.81;;;-1.00;38.64
37792;BME280;29527;55.766;37.570;2023-03-19T00:16:58;101221.63;;;-1.05;38.22
37792;BME280;29527;55.766;37.570;2023-03-19T00:19:24;101209.25;;;-0.97;37.85
37792;BME280;29527;55.766;37.570;2023-03-19T00:21:50;101214.59;;;-1.05;38.45
37792;BME280;29527;55.766;37.570;2023-03-19T00:24:15;101216.41;;;-1.10;38.49
37792;BME280;29527;55.766;37.570;2023-03-19T00:26:42;101211.13;;;-1.10;38.52
37792;BME280;29527;55.766;37.570;2023-03-19T00:29:07;101219.00;;;-1.07;38.42
37792;BME280;29527;55.766;37.570;2023-03-19T00:31:33;101180.72;;;-1.36;38.67
37792;BME280;29527;55.766;37.570;2023-03-19T00:34:00;101208.50;;;-1.10;38.91
37792;BME280;29527;55.766;37.570;2023-03-19T00:36:26;101204.19;;;-1.14;39.00
37792;BME280;29527;55.766;37.570;2023-03-19T00:38:53;101204.19;;;-1.16;39.12
37792;BME280;29527;55.766;37.570;2023-03-19T00:41:19;101193.66;;;-1.16;39.36
37792;BME280;29527;55.766;37.570;2023-03-19T00:43:46;101205.97;;;-1.21;39.15
37792;BME280;29527;55.766;37.570;2023-03-19T00:46:12;101197.25;;;-1.24;39.51
37792;BME280;29527;55.766;37.570;2023-03-19T00:48:38;101195.47;;;-1.22;39.87
37792;BME280;29527;55.766;37.570;2023-03-19T00:51:05;101196.41;;;-1.26;39.92
37792;BME280;29527;55.766;37.570;2023-03-19T00:53:35;101194.72;;;-1.32;39.61
37792;BME280;29527;55.766;37.570;2023-03-19T00:56:01;101199.91;;;-1.27;39.41
37792;BME280;29527;55.766;37.570;2023-03-19T00:58:26;101196.47;;;-1.33;40.29
37792;BME280;29527;55.766;37.570;2023-03-19T01:00:53;101194.75;;;-1.37;40.24
37792;BME280;29527;55.766;37.570;2023-03-19T01:03:19;101191.25;;;-1.39;40.14
37792;BME280;29527;55.766;37.570;2023-03-19T01:05:47;101200.88;;;-1.39;40.58
37792;BME280;29527;55.766;37.570;2023-03-19T01:08:12;101186.03;;;-1.45;40.38
37792;BME280;29527;55.766;37.570;2023-03-19T01:10:38;101172.06;;;-1.47;39.95
37792;BME280;29527;55.766;37.570;2023-03-19T01:13:04;101193.94;;;-1.43;40.66
37792;BME280;29527;55.766;37.570;2023-03-19T01:15:29;101147.75;;;-1.68;40.65
37792;BME280;29527;55.766;37.570;2023-03-19T01:17:54;101190.50;;;-1.52;40.60
37792;BME280;29527;55.766;37.570;2023-03-19T01:20:20;101187.00;;;-1.51;40.34
37792;BME280;29527;55.766;37.570;2023-03-19T01:22:48;101184.41;;;-1.55;41.03
37792;BME280;29527;55.766;37.570;2023-03-19T01:25:15;101145.22;;;-1.83;41.51
37792;BME280;29527;55.766;37.570;2023-03-19T01:27:40;101175.72;;;-1.64;41.58
37792;BME280;29527;55.766;37.570;2023-03-19T01:30:06;101182.72;;;-1.64;41.22
37792;BME280;29527;55.766;37.570;2023-03-19T01:32:32;101180.13;;;-1.66;41.45
37792;BME280;29527;55.766;37.570;2023-03-19T01:34:58;101178.38;;;-1.70;41.72
37792;BME280;29527;55.766;37.570;2023-03-19T01:37:23;101181.03;;;-1.71;42.11
37792;BME280;29527;55.766;37.570;2023-03-19T01:39:49;101182.75;;;-1.70;41.85
37792;BME280;29527;55.766;37.570;2023-03-19T01:42:14;101188.03;;;-1.70;41.89
37792;BME280;29527;55.766;37.570;2023-03-19T01:44:40;101168.78;;;-1.74;41.86
37792;BME280;29527;55.766;37.570;2023-03-19T01:47:36;101173.94;;;-1.62;41.65
37792;BME280;29527;55.766;37.570;2023-03-19T01:50:03;101166.09;;;-1.66;41.51
37792;BME280;29527;55.766;37.570;2023-03-19T01:52:32;101167.00;;;-1.72;41.89
37792;BME280;29527;55.766;37.570;2023-03-19T01:55:00;101162.66;;;-1.76;42.03
37792;BME280;29527;55.766;37.570;2023-03-19T01:57:28;101170.56;;;-1.79;41.95
37792;BME280;29527;55.766;37.570;2023-03-19T01:59:57;101165.34;;;-1.82;42.06
37792;BME280;29527;55.766;37.570;2023-03-19T02:02:29;101164.41;;;-1.74;42.04
37792;BME280;29527;55.766;37.570;2023-03-19T02:05:06;101163.41;;;-1.60;41.91
37792;BME280;29527;55.766;37.570;2023-03-19T02:07:34;101159.13;;;-1.72;42.00
37792;BME280;29527;55.766;37.570;2023-03-19T02:10:04;101117.31;;;-1.97;41.84
37792;BME280;29527;55.766;37.570;2023-03-19T02:12:31;101140.91;;;-1.88;42.25
37792;BME280;29527;55.766;37.570;2023-03-19T02:14:57;101113.00;;;-2.01;42.94
37792;BME280;29527;55.766;37.570;2023-03-19T02:17:32;101140.88;;;-1.84;42.72
37792;BME280;29527;55.766;37.570;2023-03-19T02:20:11;101135.59;;;-1.80;42.35
37792;BME280;29527;55.766;37.570;2023-03-19T02:23:21;101111.19;;;-1.96;42.21
37792;BME280;29527;55.766;37.570;2023-03-19T02:26:00;101124.25;;;-1.86;42.43
37792;BME280;29527;55.766;37.570;2023-03-19T02:28:27;101119.91;;;-1.91;42.46
37792;BME280;29527;55.766;37.570;2023-03-19T02:30:53;101133.00;;;-1.86;43.08
37792;BME280;29527;55.766;37.570;2023-03-19T02:33:19;101130.44;;;-1.97;43.10
37792;BME280;29527;55.766;37.570;2023-03-19T02:35:49;101136.56;;;-1.95;43.17
37792;BME280;29527;55.766;37.570;2023-03-19T02:38:16;101104.38;;;-2.19;43.32
37792;BME280;29527;55.766;37.570;2023-03-19T02:40:50;101144.44;;;-1.95;43.62
37792;BME280;29527;55.766;37.570;2023-03-19T02:43:16;101127.00;;;-2.00;43.24
37792;BME280;29527;55.766;37.570;2023-03-19T02:45:42;101134.91;;;-2.04;43.79
37792;BME280;29527;55.766;37.570;2023-03-19T02:48:07;101141.88;;;-2.06;43.52
37792;BME280;29527;55.766;37.570;2023-03-19T02:50:33;101130.56;;;-2.11;43.40
37792;BME280;29527;55.766;37.570;2023-03-19T02:52:58;101107.91;;;-2.26;44.13
37792;BME280;29527;55.766;37.570;2023-03-19T02:55:24;101128.81;;;-2.12;44.17
37792;BME280;29527;55.766;37.570;2023-03-19T02:57:49;101127.97;;;-2.17;44.37
37792;BME280;29527;55.766;37.570;2023-03-19T03:00:15;101125.31;;;-2.09;43.75
37792;BME280;29527;55.766;37.570;2023-03-19T03:02:43;101086.13;;;-2.34;44.16
37792;BME280;29527;55.766;37.570;2023-03-19T03:05:09;101106.97;;;-2.12;43.87
37792;BME280;29527;55.766;37.570;2023-03-19T03:07:34;101117.38;;;-2.02;43.59
37792;BME280;29527;55.766;37.570;2023-03-19T03:10:00;101128.78;;;-2.07;43.92
37792;BME280;29527;55.766;37.570;2023-03-19T03:12:25;101115.72;;;-2.15;44.53
37792;BME280;29527;55.766;37.570;2023-03-19T03:14:51;101107.75;;;-2.04;43.86
37792;BME280;29527;55.766;37.570;2023-03-19T03:17:16;101111.25;;;-2.02;43.61
37792;BME280;29527;55.766;37.570;2023-03-19T03:19:42;101102.47;;;-1.98;44.33
37792;BME280;29527;55.766;37.570;2023-03-19T03:22:07;101111.25;;;-2.02;43.77
37792;BME280;29527;55.766;37.570;2023-03-19T03:24:33;101109.53;;;-2.05;44.48
37792;BME280;29527;55.766;37.570;2023-03-19T03:26:59;101101.69;;;-2.11;44.05
37792;BME280;29527;55.766;37.570;2023-03-19T03:29:24;101106.88;;;-2.02;44.04
37792;BME280;29527;55.766;37.570;2023-03-19T03:31:50;101104.31;;;-2.11;43.82
37792;BME280;29527;55.766;37.570;2023-03-19T03:34:16;101111.34;;;-2.16;44.40
37792;BME280;29527;55.766;37.570;2023-03-19T03:36:42;101111.31;;;-2.13;44.22
37792;BME280;29527;55.766;37.570;2023-03-19T03:39:07;101101.72;;;-2.14;44.52
37792;BME280;29527;55.766;37.570;2023-03-19T03:41:33;101100.84;;;-2.14;43.96
37792;BME280;29527;55.766;37.570;2023-03-19T03:43:58;101111.31;;;-2.08;44.18
37792;BME280;29527;55.766;37.570;2023-03-19T03:46:24;101108.69;;;-2.08;43.75
37792;BME280;29527;55.766;37.570;2023-03-19T03:48:49;101100.81;;;-2.08;44.26
37792;BME280;29527;55.766;37.570;2023-03-19T03:51:17;101097.34;;;-2.13;44.54
37792;BME280;29527;55.766;37.570;2023-03-19T03:53:43;101106.91;;;-2.05;44.21
37792;BME280;29527;55.766;37.570;2023-03-19T03:56:08;101086.00;;;-2.17;44.32
37792;BME280;29527;55.766;37.570;2023-03-19T03:58:33;101098.97;;;-2.00;43.58
37792;BME280;29527;55.766;37.570;2023-03-19T04:00:59;101090.31;;;-2.10;44.17
37792;BME280;29527;55.766;37.570;2023-03-19T04:03:25;101095.53;;;-2.05;43.92
37792;BME280;29527;55.766;37.570;2023-03-19T04:05:51;101100.69;;;-1.94;44.48
37792;BME280;29527;55.766;37.570;2023-03-19T04:08:16;101098.06;;;-1.94;43.75
37792;BME280;29527;55.766;37.570;2023-03-19T04:10:42;101106.72;;;-1.83;44.12
37792;BME280;29527;55.766;37.570;2023-03-19T04:13:09;101105.81;;;-1.80;43.61
37792;BME280;29527;55.766;37.570;2023-03-19T04:15:35;101094.44;;;-1.79;43.86
37792;BME280;29527;55.766;37.570;2023-03-19T04:18:00;101090.84;;;-1.70;44.01
37792;BME280;29527;55.766;37.570;2023-03-19T04:20:26;101079.34;;;-0.18;41.07
37792;BME280;29527;55.766;37.570;2023-03-19T04:22:51;101087.47;;;2.29;36.35
37792;BME280;29527;55.766;37.570;2023-03-19T04:25:17;101067.66;;;4.22;32.76
37792;BME280;29527;55.766;37.570;2023-03-19T04:27:43;101072.72;;;5.50;30.52
37792;BME280;29527;55.766;37.570;2023-03-19T04:30:10;101076.50;;;6.73;28.51
37792;BME280;29527;55.766;37.570;2023-03-19T04:32:37;101072.22;;;7.67;27.23
37792;BME280;29527;55.766;37.570;2023-03-19T04:35:02;101058.63;;;8.96;25.54
37792;BME280;29527;55.766;37.570;2023-03-19T04:37:29;101068.47;;;10.23;24.23
37792;BME280;29527;55.766;37.570;2023-03-19T04:39:54;101061.50;;;11.09;22.91
37792;BME280;29527;55.766;37.570;2023-03-19T04:42:20;101065.91;;;11.66;21.83
37792;BME280;29527;55.766;37.570;2023-03-19T04:44:46;101055.78;;;12.52;20.89
37792;BME280;29527;55.766;37.570;2023-03-19T04:47:11;101059.63;;;13.13;20.40
37792;BME280;29527;55.766;37.570;2023-03-19T04:49:37;101052.28;;;13.89;19.40
37792;BME280;29527;55.766;37.570;2023-03-19T04:52:03;101045.41;;;14.57;18.44
37792;BME280;29527;55.766;37.570;2023-03-19T04:54:29;101059.69;;;15.27;17.91
37792;BME280;29527;55.766;37.570;2023-03-19T04:56:54;101057.97;;;15.26;17.64
37792;BME280;29527;55.766;37.570;2023-03-19T04:59:20;101053.72;;;15.68;17.09
37792;BME280;29527;55.766;37.570;2023-03-19T05:01:46;101047.19;;;16.57;16.32
37792;BME280;29527;55.766;37.570;2023-03-19T05:04:12;101044.69;;;17.27;15.73
37792;BME280;29527;55.766;37.570;2023-03-19T05:06:38;100998.47;;;17.89;15.15
37792;BME280;29527;55.766;37.570;2023-03-19T05:09:04;101039.00;;;19.16;14.30
37792;BME280;29527;55.766;37.570;2023-03-19T05:11:30;101040.19;;;19.59;13.55
37792;BME280;29527;55.766;37.570;2023-03-19T05:13:56;101034.63;;;19.79;13.20
37792;BME280;29527;55.766;37.570;2023-03-19T05:16:21;101038.50;;;20.13;13.12
37792;BME280;29527;55.766;37.570;2023-03-19T05:18:47;101038.22;;;20.95;12.71
37792;BME280;29527;55.766;37.570;2023-03-19T05:21:13;101038.38;;;21.96;11.75
37792;BME280;29527;55.766;37.570;2023-03-19T05:23:40;101035.47;;;22.64;11.03
37792;BME280;29527;55.766;37.570;2023-03-19T05:26:06;101038.19;;;22.64;11.23
37792;BME280;29527;55.766;37.570;2023-03-19T05:28:33;101034.78;;;23.18;10.82
37792;BME280;29527;55.766;37.570;2023-03-19T05:30:58;101027.75;;;23.87;10.56
37792;BME280;29527;55.766;37.570;2023-03-19T05:33:24;101018.69;;;24.10;10.20
37792;BME280;29527;55.766;37.570;2023-03-19T05:35:49;101018.84;;;24.32;10.00
37792;BME280;29527;55.766;37.570;2023-03-19T05:38:15;101023.53;;;24.76;9.74
37792;BME280;29527;55.766;37.570;2023-03-19T05:40:41;101013.31;;;25.15;9.48
37792;BME280;29527;55.766;37.570;2023-03-19T05:43:08;101023.56;;;25.58;9.16
37792;BME280;29527;55.766;37.570;2023-03-19T05:45:34;101018.41;;;25.70;8.79
37792;BME280;29527;55.766;37.570;2023-03-19T05:48:00;101012.69;;;25.50;9.11
37792;BME280;29527;55.766;37.570;2023-03-19T05:50:26;101006.09;;;25.88;8.90
37792;BME280;29527;55.766;37.570;2023-03-19T05:52:52;100999.03;;;26.50;8.54
37792;BME280;29527;55.766;37.570;2023-03-19T05:55:17;100993.94;;;27.25;8.39
37792;BME280;29527;55.766;37.570;2023-03-19T05:57:43;100987.97;;;27.90;7.99
37792;BME280;29527;55.766;37.570;2023-03-19T06:00:09;100986.91;;;28.11;7.99
37792;BME280;29527;55.766;37.570;2023-03-19T06:02:35;100986.28;;;28.29;7.64
37792;BME280;29527;55.766;37.570;2023-03-19T06:05:01;100964.47;;;28.34;7.25
37792;BME280;29527;55.766;37.570;2023-03-19T06:07:28;100972.81;;;28.87;7.15
37792;BME280;29527;55.766;37.570;2023-03-19T06:09:54;100970.03;;;29.39;6.91
37792;BME280;29527;55.766;37.570;2023-03-19T06:12:19;100983.81;;;29.78;6.57
37792;BME280;29527;55.766;37.570;2023-03-19T06:14:46;100979.66;;;29.69;6.72
37792;BME280;29527;55.766;37.570;2023-03-19T06:17:12;100976.41;;;29.78;6.68
37792;BME280;29527;55.766;37.570;2023-03-19T06:19:37;100963.97;;;29.62;6.41
37792;BME280;29527;55.766;37.570;2023-03-19T06:22:03;100960.72;;;29.72;6.57
37792;BME280;29527;55.766;37.570;2023-03-19T06:24:28;100963.88;;;30.27;6.36
37792;BME280;29527;55.766;37.570;2023-03-19T06:26:55;100962.88;;;30.21;6.49
37792;BME280;29527;55.766;37.570;2023-03-19T06:29:20;100955.34;;;30.72;6.25
37792;BME280;29527;55.766;37.570;2023-03-19T06:31:45;100947.44;;;31.25;6.08
37792;BME280;29527;55.766;37.570;2023-03-19T06:34:11;100952.84;;;31.50;5.81
37792;BME280;29527;55.766;37.570;2023-03-19T06:36:37;100958.50;;;31.56;5.98
37792;BME280;29527;55.766;37.570;2023-03-19T06:39:02;100932.00;;;32.14;5.61
37792;BME280;29527;55.766;37.570;2023-03-19T06:41:28;100947.56;;;33.21;5.17
37792;BME280;29527;55.766;37.570;2023-03-19T06:43:54;100947.75;;;33.60;4.75
37792;BME280;29527;55.766;37.570;2023-03-19T06:46:19;100925.03;;;33.81;4.66
37792;BME280;29527;55.766;37.570;2023-03-19T06:48:44;100939.06;;;34.47;4.56
37792;BME280;29527;55.766;37.570;2023-03-19T06:51:10;100941.97;;;34.35;4.48
37792;BME280;29527;55.766;37.570;2023-03-19T06:53:35;100932.69;;;34.47;4.33
37792;BME280;29527;55.766;37.570;2023-03-19T06:56:01;100935.72;;;34.45;4.55
37792;BME280;29527;55.766;37.570;2023-03-19T06:58:26;100932.84;;;34.80;4.53
37792;BME280;29527;55.766;37.570;2023-03-19T07:00:52;100936.78;;;35.33;4.14
37792;BME280;29527;55.766;37.570;2023-03-19T07:03:18;100927.44;;;35.77;4.12
37792;BME280;29527;55.766;37.570;2023-03-19T07:05:43;100929.72;;;36.18;3.44
37792;BME280;29527;55.766;37.570;2023-03-19T07:08:09;100924.22;;;35.96;3.93
37792;BME280;29527;55.766;37.570;2023-03-19T07:10:39;100921.56;;;36.60;3.64
37792;BME280;29527;55.766;37.570;2023-03-19T07:13:05;100921.97;;;36.36;3.91
37792;BME280;29527;55.766;37.570;2023-03-19T07:15:30;100906.91;;;36.37;3.70
37792;BME280;29527;55.766;37.570;2023-03-19T07:17:56;100905.25;;;36.41;3.11
37792;BME280;29527;55.766;37.570;2023-03-19T07:20:21;100895.84;;;35.61;3.85
37792;BME280;29527;55.766;37.570;2023-03-19T07:22:50;100910.59;;;35.29;4.16
37792;BME280;29527;55.766;37.570;2023-03-19T07:25:15;100906.28;;;34.94;4.15
37792;BME280;29527;55.766;37.570;2023-03-19T07:27:41;100907.63;;;34.86;4.12
37792;BME280;29527;55.766;37.570;2023-03-19T07:30:08;100884.28;;;34.65;4.14
37792;BME280;29527;55.766;37.570;2023-03-19T07:32:34;100890.94;;;34.86;4.21
37792;BME280;29527;55.766;37.570;2023-03-19T07:35:00;100897.75;;;34.73;4.11
37792;BME280;29527;55.766;37.570;2023-03-19T07:37:26;100895.19;;;34.72;4.08
37792;BME280;29527;55.766;37.570;2023-03-19T07:39:51;100897.56;;;34.18;4.34
37792;BME280;29527;55.766;37.570;2023-03-19T07:42:17;100894.69;;;33.28;4.92
37792;BME280;29527;55.766;37.570;2023-03-19T07:44:42;100898.75;;;32.38;5.07
37792;BME280;29527;55.766;37.570;2023-03-19T07:47:08;100894.28;;;32.13;5.42
37792;BME280;29527;55.766;37.570;2023-03-19T07:49:33;100899.69;;;32.32;5.53
37792;BME280;29527;55.766;37.570;2023-03-19T07:51:58;100895.22;;;32.43;4.85
37792;BME280;29527;55.766;37.570;2023-03-19T07:54:24;100898.63;;;32.33;5.02
37792;BME280;29527;55.766;37.570;2023-03-19T07:56:49;100895.09;;;32.26;5.35
37792;BME280;29527;55.766;37.570;2023-03-19T07:59:15;100867.00;;;31.27;5.63
37792;BME280;29527;55.766;37.570;2023-03-19T08:01:41;100886.38;;;30.03;5.91
37792;BME280;29527;55.766;37.570;2023-03-19T08:04:06;100875.59;;;27.53;7.12
37792;BME280;29527;55.766;37.570;2023-03-19T08:06:32;100864.75;;;24.31;8.68
37792;BME280;29527;55.766;37.570;2023-03-19T08:08:58;100867.81;;;21.27;10.85
37792;BME280;29527;55.766;37.570;2023-03-19T08:11:23;100873.06;;;18.83;12.79
37792;BME280;29527;55.766;37.570;2023-03-19T08:13:49;100870.22;;;16.81;14.47
37792;BME280;29527;55.766;37.570;2023-03-19T08:16:14;100873.53;;;15.16;15.62
37792;BME280;29527;55.766;37.570;2023-03-19T08:18:40;100867.56;;;13.53;17.17
37792;BME280;29527;55.766;37.570;2023-03-19T08:21:06;100869.06;;;12.20;18.90
37792;BME280;29527;55.766;37.570;2023-03-19T08:23:32;100865.84;;;11.36;19.92
37792;BME280;29527;55.766;37.570;2023-03-19T08:25:59;100856.75;;;10.56;20.82
37792;BME280;29527;55.766;37.570;2023-03-19T08:28:24;100862.28;;;9.95;21.40
37792;BME280;29527;55.766;37.570;2023-03-19T08:30:50;100862.31;;;9.50;22.35
37792;BME280;29527;55.766;37.570;2023-03-19T08:33:15;100856.06;;;8.72;23.10
37792;BME280;29527;55.766;37.570;2023-03-19T08:35:41;100864.19;;;8.37;23.67
37792;BME280;29527;55.766;37.570;2023-03-19T08:38:06;100861.81;;;8.15;24.18
37792;BME280;29527;55.766;37.570;2023-03-19T08:40:32;100856.69;;;7.94;24.54
37792;BME280;29527;55.766;37.570;2023-03-19T08:42:58;100856.66;;;7.78;25.13
37792;BME280;29527;55.766;37.570;2023-03-19T08:45:24;100856.66;;;7.60;25.57
37792;BME280;29527;55.766;37.570;2023-03-19T08:47:50;100846.38;;;7.53;25.62
37792;BME280;29527;55.766;37.570;2023-03-19T08:50:16;100853.69;;;7.31;26.33
37792;BME280;29527;55.766;37.570;2023-03-19T08:52:41;100805.97;;;6.72;26.31
37792;BME280;29527;55.766;37.570;2023-03-19T08:55:08;100843.88;;;6.78;27.41
37792;BME280;29527;55.766;37.570;2023-03-19T08:57:34;100836.41;;;6.28;28.06
37792;BME280;29527;55.766;37.570;2023-03-19T09:00:01;100839.28;;;6.24;28.49
37792;BME280;29527;55.766;37.570;2023-03-19T09:02:26;100825.50;;;6.15;28.14
37792;BME280;29527;55.766;37.570;2023-03-19T09:04:52;100825.50;;;6.15;28.56
37792;BME280;29527;55.766;37.570;2023-03-19T09:07:18;100816.38;;;6.21;28.46
37792;BME280;29527;55.766;37.570;2023-03-19T09:09:44;100809.34;;;5.99;28.99
37792;BME280;29527;55.766;37.570;2023-03-19T09:12:12;100791.38;;;5.85;29.30
37792;BME280;29527;55.766;37.570;2023-03-19T09:14:38;100804.22;;;5.95;29.40
37792;BME280;29527;55.766;37.570;2023-03-19T09:17:04;100797.84;;;5.99;29.78
37792;BME280;29527;55.766;37.570;2023-03-19T09:19:30;100797.31;;;6.11;29.53
37792;BME280;29527;55.766;37.570;2023-03-19T09:21:56;100792.44;;;6.21;29.56
37792;BME280;29527;55.766;37.570;2023-03-19T09:24:21;100793.94;;;6.27;29.27
37792;BME280;29527;55.766;37.570;2023-03-19T09:26:47;100796.16;;;6.36;29.08
37792;BME280;29527;55.766;37.570;2023-03-19T09:29:14;100790.41;;;6.45;29.32
37792;BME280;29527;55.766;37.570;2023-03-19T09:31:39;100777.06;;;6.28;29.51
37792;BME280;29527;55.766;37.570;2023-03-19T09:34:06;100804.81;;;6.22;29.90
37792;BME280;29527;55.766;37.570;2023-03-19T09:36:36;100801.72;;;6.12;30.13
37792;BME280;29527;55.766;37.570;2023-03-19T09:39:03;100801.06;;;6.07;29.82
37792;BME280;29527;55.766;37.570;2023-03-19T09:41:38;100799.47;;;6.22;29.32
37792;BME280;29527;55.766;37.570;2023-03-19T09:46:53;100786.25;;;6.40;28.76
37792;BME280;29527;55.766;37.570;2023-03-19T09:49:30;100786.25;;;6.21;30.73
37792;BME280;29527;55.766;37.570;2023-03-19T09:52:30;100783.97;;;6.32;29.80
37792;BME280;29527;55.766;37.570;2023-03-19T09:57:47;100784.38;;;6.23;30.07
37792;BME280;29527;55.766;37.570;2023-03-19T10:00:22;100785.69;;;6.33;30.36
37792;BME280;29527;55.766;37.570;2023-03-19T10:05:50;100775.38;;;6.44;30.98
37792;BME280;29527;55.766;37.570;2023-03-19T10:16:21;100768.13;;;6.48;31.25
37792;BME280;29527;55.766;37.570;2023-03-19T10:18:50;100759.50;;;6.43;30.87
37792;BME280;29527;55.766;37.570;2023-03-19T10:21:49;100766.56;;;6.44;31.01
37792;BME280;29527;55.766;37.570;2023-03-19T10:24:28;100751.38;;;6.27;31.47
37792;BME280;29527;55.766;37.570;2023-03-19T10:26:58;100753.69;;;6.15;31.71
37792;BME280;29527;55.766;37.570;2023-03-19T10:29:26;100753.06;;;6.10;32.07
37792;BME280;29527;55.766;37.570;2023-03-19T10:31:58;100754.69;;;6.13;31.94
37792;BME280;29527;55.766;37.570;2023-03-19T10:34:32;100748.22;;;6.18;32.07
37792;BME280;29527;55.766;37.570;2023-03-19T10:39:42;100741.88;;;6.40;31.81
37792;BME280;29527;55.766;37.570;2023-03-19T10:47:55;100732.84;;;6.62;31.21
37792;BME280;29527;55.766;37.570;2023-03-19T10:50:28;100722.69;;;6.53;31.83
37792;BME280;29527;55.766;37.570;2023-03-19T10:56:16;100725.28;;;6.35;31.10
37792;BME280;29527;55.766;37.570;2023-03-19T10:58:55;100727.03;;;6.17;31.42
37792;BME280;29527;55.766;37.570;2023-03-19T11:01:26;100714.94;;;5.91;32.66
37792;BME280;29527;55.766;37.570;2023-03-19T11:03:56;100717.75;;;5.87;33.15
37792;BME280;29527;55.766;37.570;2023-03-19T11:06:33;100721.56;;;6.01;32.31
37792;BME280;29527;55.766;37.570;2023-03-19T11:11:31;100707.22;;;6.05;32.17
37792;BME280;29527;55.766;37.570;2023-03-19T11:14:05;100709.28;;;5.98;32.19
37792;BME280;29527;55.766;37.570;2023-03-19T11:16:45;100699.78;;;5.93;32.63
37792;BME280;29527;55.766;37.570;2023-03-19T11:19:31;100708.28;;;6.01;32.46
37792;BME280;29527;55.766;37.570;2023-03-19T11:22:16;100701.03;;;6.05;32.26
37792;BME280;29527;55.766;37.570;2023-03-19T11:27:18;100698.00;;;6.12;33.00
37792;BME280;29527;55.766;37.570;2023-03-19T11:29:50;100686.22;;;6.18;32.69
37792;BME280;29527;55.766;37.570;2023-03-19T11:35:04;100690.03;;;6.12;33.63
37792;BME280;29527;55.766;37.570;2023-03-19T11:37:45;100670.91;;;6.23;32.59
37792;BME280;29527;55.766;37.570;2023-03-19T11:51:29;100648.84;;;5.83;32.95
37792;BME280;29527;55.766;37.570;2023-03-19T11:53:59;100665.38;;;5.89;34.20
37792;BME280;29527;55.766;37.570;2023-03-19T11:59:17;100668.53;;;5.98;33.71
37792;BME280;29527;55.766;37.570;2023-03-19T12:02:31;100656.78;;;5.84;33.73
37792;BME280;29527;55.766;37.570;2023-03-19T12:06:08;100656.97;;;5.80;33.48
37792;BME280;29527;55.766;37.570;2023-03-19T12:29:27;100611.16;;;5.74;34.90
37792;BME280;29527;55.766;37.570;2023-03-19T12:34:28;100602.91;;;5.81;34.80
37792;BME280;29527;55.766;37.570;2023-03-19T12:39:47;100596.59;;;5.83;34.85
37792;BME280;29527;55.766;37.570;2023-03-19T12:42:17;100588.75;;;5.80;34.66
37792;BME280;29527;55.766;37.570;2023-03-19T12:44:52;100591.69;;;5.74;34.86
37792;BME280;29527;55.766;37.570;2023-03-19T12:47:24;100576.53;;;5.76;34.88
37792;BME280;29527;55.766;37.570;2023-03-19T12:55:22;100573.34;;;5.50;35.75
37792;BME280;29527;55.766;37.570;2023-03-19T13:00:51;100575.94;;;5.52;36.19
37792;BME280;29527;55.766;37.570;2023-03-19T13:03:27;100559.91;;;5.53;36.14
37792;BME280;29527;55.766;37.570;2023-03-19T13:06:02;100568.75;;;5.54;36.13
37792;BME280;29527;55.766;37.570;2023-03-19T13:09:01;100556.81;;;5.63;35.63
37792;BME280;29527;55.766;37.570;2023-03-19T13:16:50;100557.25;;;5.53;36.18
37792;BME280;29527;55.766;37.570;2023-03-19T13:21:48;100549.59;;;5.28;36.62
37792;BME280;29527;55.766;37.570;2023-03-19T13:24:18;100552.25;;;5.28;35.98
37792;BME280;29527;55.766;37.570;2023-03-19T13:26:46;100548.88;;;5.24;36.29
37792;BME280;29527;55.766;37.570;2023-03-19T13:31:47;100515.31;;;5.04;36.28
37792;BME280;29527;55.766;37.570;2023-03-19T13:36:43;100540.22;;;5.21;36.34
37792;BME280;29527;55.766;37.570;2023-03-19T13:39:18;100532.16;;;5.22;35.48
37792;BME280;29527;55.766;37.570;2023-03-19T13:41:50;100527.00;;;5.19;35.98
37792;BME280;29527;55.766;37.570;2023-03-19T13:44:26;100525.22;;;5.20;36.05
37792;BME280;29527;55.766;37.570;2023-03-19T13:46:52;100524.91;;;5.45;35.12
37792;BME280;29527;55.766;37.570;2023-03-19T13:49:27;100520.94;;;5.54;33.94
37792;BME280;29527;55.766;37.570;2023-03-19T13:54:43;100518.38;;;5.14;35.64
37792;BME280;29527;55.766;37.570;2023-03-19T13:59:45;100522.53;;;5.00;35.81
37792;BME280;29527;55.766;37.570;2023-03-19T14:05:01;100506.63;;;5.00;35.77
37792;BME280;29527;55.766;37.570;2023-03-19T14:07:34;100503.47;;;4.92;35.87
37792;BME280;29527;55.766;37.570;2023-03-19T14:12:36;100506.03;;;4.94;36.47
37792;BME280;29527;55.766;37.570;2023-03-19T14:15:23;100498.78;;;4.97;35.89
37792;BME280;29527;55.766;37.570;2023-03-19T14:29:10;100463.47;;;4.57;36.19
37792;BME280;29527;55.766;37.570;2023-03-19T14:31:19;100487.41;;;4.76;35.77
37792;BME280;29527;55.766;37.570;2023-03-19T14:33:51;100487.75;;;4.68;36.71
37792;BME280;29527;55.766;37.570;2023-03-19T14:36:19;100482.34;;;4.70;36.67
37792;BME280;29527;55.766;37.570;2023-03-19T14:38:51;100482.34;;;4.70;36.35
37792;BME280;29527;55.766;37.570;2023-03-19T14:41:20;100485.22;;;4.65;36.81
37792;BME280;29527;55.766;37.570;2023-03-19T14:54:50;100481.66;;;5.24;36.75
37792;BME280;29527;55.766;37.570;2023-03-19T14:57:28;100488.53;;;5.28;37.04
37792;BME280;29527;55.766;37.570;2023-03-19T14:59:54;100452.25;;;5.09;36.62
37792;BME280;29527;55.766;37.570;2023-03-19T15:02:34;100472.19;;;5.18;37.06